createdAt,value
2019-01-26T00:00:59.119Z,88.55
2019-01-26T00:04:14.618Z,88.64
2019-01-26T00:07:29.867Z,88.49
2019-01-26T00:10:46.129Z,88.93
2019-01-26T00:14:01.787Z,88.82
2019-01-26T00:17:17.290Z,88.95
2019-01-26T00:20:36.450Z,89.21
2019-01-26T00:23:50.822Z,89.27
2019-01-26T00:27:06.282Z,89.11
2019-01-26T00:30:21.823Z,88.96
2019-01-26T00:33:36.992Z,89.30
2019-01-26T00:37:04.721Z,89.18
2019-01-26T00:40:20.266Z,89.28
2019-01-26T00:43:35.422Z,88.96
2019-01-26T00:46:50.979Z,89.04
2019-01-26T00:50:06.653Z,88.83
2019-01-26T00:53:21.793Z,88.86
2019-01-26T00:56:37.059Z,89.52
2019-01-26T00:59:52.496Z,89.85
2019-01-26T01:03:07.741Z,89.65
2019-01-26T01:06:25.989Z,89.49
2019-01-26T01:09:40.434Z,89.60
2019-01-26T01:12:55.748Z,89.94
2019-01-26T01:16:11.194Z,90.00
2019-01-26T01:19:26.351Z,90.06
2019-01-26T01:22:41.508Z,89.80
2019-01-26T01:25:56.642Z,89.86
2019-01-26T01:29:12.296Z,89.78
2019-01-26T01:32:27.759Z,89.57
2019-01-26T01:35:43.215Z,89.41
2019-01-26T01:38:58.476Z,89.42
2019-01-26T01:42:13.919Z,89.78
2019-01-26T01:45:29.154Z,89.73
2019-01-26T01:48:45.092Z,89.66
2019-01-26T01:52:00.378Z,89.88
2019-01-26T01:55:15.942Z,89.68
2019-01-26T01:58:31.398Z,89.89
2019-01-26T02:01:46.853Z,89.77
2019-01-26T02:09:17.519Z,90.37
2019-01-26T02:12:32.810Z,90.29
2019-01-26T02:15:47.864Z,89.98
2019-01-26T02:19:03.096Z,89.70
2019-01-26T02:22:18.207Z,89.92
2019-01-26T02:25:33.732Z,90.62
2019-01-26T02:28:49.070Z,90.69
2019-01-26T02:32:04.420Z,90.52
2019-01-26T02:35:20.005Z,90.32
2019-01-26T02:38:35.410Z,90.37
2019-01-26T02:41:50.832Z,90.39
2019-01-26T02:45:06.670Z,90.47
2019-01-26T02:48:21.774Z,90.23
2019-01-26T02:51:37.233Z,89.92
2019-01-26T02:54:52.372Z,89.95
2019-01-26T02:58:07.510Z,89.92
2019-01-26T03:01:22.836Z,90.03
2019-01-26T03:04:38.062Z,89.70
2019-01-26T03:07:53.811Z,89.78
2019-01-26T03:11:08.949Z,89.73
2019-01-26T03:14:24.461Z,89.60
2019-01-26T03:17:39.518Z,89.61
2019-01-26T03:20:54.898Z,89.87
2019-01-26T03:24:10.320Z,89.60
2019-01-26T03:27:25.906Z,89.70
2019-01-26T03:30:41.111Z,89.34
2019-01-26T03:33:56.431Z,89.64
2019-01-26T03:37:11.724Z,89.46
2019-01-26T03:40:26.963Z,89.50
2019-01-26T03:43:42.108Z,90.15
2019-01-26T03:46:57.276Z,90.02
2019-01-26T03:50:12.246Z,90.11
2019-01-26T03:53:27.659Z,90.66
2019-01-26T03:56:42.956Z,91.13
2019-01-26T03:59:58.123Z,91.03
2019-01-26T04:03:13.563Z,91.05
2019-01-26T04:06:28.973Z,91.35
2019-01-26T04:09:44.468Z,91.46
2019-01-26T04:12:59.613Z,91.14
2019-01-26T04:16:15.069Z,91.49
2019-01-26T04:19:30.213Z,91.90
2019-01-26T04:22:45.795Z,91.62
2019-01-26T04:26:00.872Z,91.58
2019-01-26T04:29:16.117Z,91.60
2019-01-26T04:32:31.185Z,91.56
2019-01-26T04:35:46.463Z,91.54
2019-01-26T04:39:01.843Z,91.48
2019-01-26T04:42:17.296Z,91.34
2019-01-26T04:45:32.460Z,91.54
2019-01-26T04:48:47.625Z,91.41
2019-01-26T04:52:03.090Z,91.69
2019-01-26T04:55:18.299Z,91.91
2019-01-26T04:58:33.676Z,92.17
2019-01-26T05:01:48.911Z,92.06
2019-01-26T05:05:04.619Z,92.06
2019-01-26T05:08:19.918Z,92.20
2019-01-26T05:11:35.755Z,92.38
2019-01-26T05:14:50.961Z,92.16
2019-01-26T05:18:06.437Z,92.20
2019-01-26T05:21:21.574Z,92.17
2019-01-26T05:24:37.068Z,92.25
2019-01-26T05:27:52.337Z,92.44
2019-01-26T05:31:07.406Z,92.62
2019-01-26T05:34:22.742Z,92.58
2019-01-26T05:37:38.160Z,92.37
2019-01-26T05:40:53.457Z,92.56
2019-01-26T05:44:08.612Z,92.33
2019-01-26T05:47:24.101Z,92.20
2019-01-26T05:50:39.184Z,92.43
2019-01-26T05:53:54.415Z,92.26
2019-01-26T05:57:09.707Z,92.40
2019-01-26T06:00:30.749Z,92.36
2019-01-26T06:03:45.910Z,92.34
2019-01-26T06:07:01.099Z,92.14
2019-01-26T06:10:16.521Z,92.28
2019-01-26T06:13:31.762Z,92.34
2019-01-26T06:16:47.120Z,91.93
2019-01-26T06:20:02.340Z,92.12
2019-01-26T06:23:17.524Z,91.78
2019-01-26T06:26:33.188Z,92.04
2019-01-26T06:29:48.395Z,91.93
2019-01-26T06:33:04.488Z,91.83
2019-01-26T06:36:19.891Z,92.16
2019-01-26T06:39:35.295Z,92.17
2019-01-26T06:42:50.547Z,92.20
2019-01-26T06:46:05.968Z,92.30
2019-01-26T06:49:21.179Z,92.12
2019-01-26T06:52:36.528Z,92.18
2019-01-26T06:55:51.683Z,92.52
2019-01-26T06:59:07.107Z,92.67
2019-01-26T07:02:22.515Z,92.42
2019-01-26T07:05:45.203Z,92.38
2019-01-26T07:09:00.260Z,92.43
2019-01-26T07:12:15.511Z,92.51
2019-01-26T07:15:31.115Z,92.90
2019-01-26T07:18:46.260Z,93.29
2019-01-26T07:22:01.516Z,93.13
2019-01-26T07:25:16.866Z,93.07
2019-01-26T07:28:32.101Z,93.23
2019-01-26T07:31:47.267Z,93.19
2019-01-26T07:35:02.523Z,93.03
2019-01-26T07:38:17.970Z,92.96
2019-01-26T07:41:34.119Z,92.42
2019-01-26T07:44:49.582Z,92.00
2019-01-26T07:48:05.977Z,91.97
2019-01-26T07:51:21.122Z,91.96
2019-01-26T07:54:36.395Z,91.71
2019-01-26T07:57:51.582Z,91.15
2019-01-26T08:01:06.965Z,90.89
2019-01-26T08:04:22.288Z,90.96
2019-01-26T08:07:37.700Z,90.80
2019-01-26T08:10:53.160Z,90.94
2019-01-26T08:14:08.805Z,90.70
2019-01-26T08:17:24.316Z,90.48
2019-01-26T08:20:39.600Z,89.78
2019-01-26T08:23:55.056Z,89.48
2019-01-26T08:27:10.310Z,89.06
2019-01-26T08:30:25.732Z,88.85
2019-01-26T08:33:40.919Z,88.69
2019-01-26T08:36:56.637Z,88.08
2019-01-26T08:40:12.872Z,88.17
2019-01-26T08:43:28.297Z,88.35
2019-01-26T08:46:43.670Z,88.58
2019-01-26T08:49:59.080Z,89.36
2019-01-26T08:53:14.536Z,89.76
2019-01-26T08:56:29.934Z,89.62
2019-01-26T08:59:45.322Z,89.32
2019-01-26T09:03:21.343Z,88.91
2019-01-26T09:06:40.560Z,88.41
2019-01-26T09:09:55.788Z,88.64
2019-01-26T09:13:11.054Z,88.68
2019-01-26T09:16:26.446Z,88.16
2019-01-26T09:19:41.844Z,87.58
2019-01-26T09:22:57.337Z,87.27
2019-01-26T09:26:12.726Z,87.05
2019-01-26T09:29:27.950Z,86.92
2019-01-26T09:32:43.362Z,86.69
2019-01-26T09:35:58.699Z,86.52
2019-01-26T09:39:13.780Z,85.36
2019-01-26T09:42:29.044Z,85.18
2019-01-26T09:45:44.427Z,84.88
2019-01-26T09:49:00.047Z,85.24
2019-01-26T09:52:15.269Z,84.80
2019-01-26T09:55:30.673Z,85.14
2019-01-26T09:58:46.224Z,84.84
2019-01-26T10:02:01.487Z,83.62
2019-01-26T10:05:16.902Z,82.82
2019-01-26T10:08:32.061Z,81.86
2019-01-26T10:11:47.376Z,81.28
2019-01-26T10:15:02.766Z,80.27
2019-01-26T10:18:17.921Z,80.04
2019-01-26T10:21:33.357Z,79.16
2019-01-26T10:24:48.847Z,79.52
2019-01-26T10:28:03.910Z,79.56
2019-01-26T10:31:19.878Z,79.62
2019-01-26T10:34:35.307Z,79.66
2019-01-26T10:37:50.400Z,78.88
2019-01-26T10:41:32.509Z,78.67
2019-01-26T10:44:47.611Z,79.46
2019-01-26T10:48:04.548Z,79.44
2019-01-26T10:51:20.293Z,79.11
2019-01-26T10:54:35.403Z,78.71
2019-01-26T10:57:50.865Z,78.45
2019-01-26T11:01:06.143Z,78.55
2019-01-26T11:04:21.453Z,77.92
2019-01-26T11:07:36.883Z,79.02
2019-01-26T11:10:51.976Z,79.17
2019-01-26T11:14:07.440Z,79.17
2019-01-26T11:17:23.201Z,77.91
2019-01-26T11:20:38.412Z,77.56
2019-01-26T11:23:53.912Z,77.48
2019-01-26T11:27:09.197Z,78.04
2019-01-26T11:30:26.017Z,80.38
2019-01-26T11:33:41.194Z,81.27
2019-01-26T11:36:56.339Z,82.61
2019-01-26T11:40:17.043Z,83.42
2019-01-26T11:43:31.229Z,83.72
2019-01-26T11:46:50.254Z,83.28
2019-01-26T11:50:07.222Z,82.38
2019-01-26T11:53:22.668Z,81.62
2019-01-26T11:56:56.815Z,82.03
2019-01-26T12:00:34.621Z,82.63
2019-01-26T12:03:59.333Z,82.23
2019-01-26T12:07:21.485Z,82.33
2019-01-26T12:10:36.837Z,82.22
2019-01-26T12:13:52.003Z,82.61
2019-01-26T12:17:07.353Z,82.38
2019-01-26T12:20:21.935Z,80.65
2019-01-26T12:23:37.391Z,80.08
2019-01-26T12:26:52.771Z,79.68
2019-01-26T12:30:08.453Z,80.13
2019-01-26T12:33:23.542Z,81.46
2019-01-26T12:36:38.982Z,81.76
2019-01-26T12:39:54.140Z,81.79
2019-01-26T12:43:09.541Z,81.53
2019-01-26T12:46:24.987Z,83.04
2019-01-26T12:49:40.282Z,83.03
2019-01-26T12:52:56.047Z,81.60
2019-01-26T12:56:11.432Z,80.04
2019-01-26T12:59:26.742Z,79.23
2019-01-26T13:02:41.836Z,80.57
2019-01-26T13:05:56.959Z,80.42
2019-01-26T13:09:12.583Z,79.43
2019-01-26T13:12:27.908Z,80.26
2019-01-26T13:15:43.163Z,81.83
2019-01-26T13:18:58.828Z,83.41
2019-01-26T13:22:14.048Z,83.38
2019-01-26T13:25:30.129Z,82.22
2019-01-26T13:28:45.204Z,80.96
2019-01-26T13:32:00.451Z,81.36
2019-01-26T13:35:16.248Z,81.84
2019-01-26T13:38:31.529Z,81.23
2019-01-26T13:41:47.139Z,81.54
2019-01-26T13:45:02.356Z,82.88
2019-01-26T13:48:17.482Z,84.44
2019-01-26T13:51:34.050Z,85.13
2019-01-26T13:54:49.310Z,84.63
2019-01-26T13:58:04.587Z,84.24
2019-01-26T14:01:20.621Z,83.49
2019-01-26T14:04:35.983Z,83.38
2019-01-26T14:07:51.368Z,82.75
2019-01-26T14:11:06.851Z,83.67
2019-01-26T14:14:22.532Z,85.17
2019-01-26T14:17:37.659Z,85.37
2019-01-26T14:20:53.162Z,86.17
2019-01-26T14:24:08.996Z,86.07
2019-01-26T14:27:24.283Z,86.26
2019-01-26T14:30:42.340Z,85.74
2019-01-26T14:33:57.875Z,85.97
2019-01-26T14:37:13.504Z,85.17
2019-01-26T14:40:28.745Z,84.79
2019-01-26T14:43:43.946Z,84.88
2019-01-26T14:46:59.249Z,84.62
2019-01-26T14:50:14.615Z,85.27
2019-01-26T14:53:29.951Z,85.94
2019-01-26T14:56:45.458Z,87.78
2019-01-26T15:00:00.848Z,88.26
2019-01-26T15:03:16.397Z,89.02
2019-01-26T15:06:31.585Z,89.15
2019-01-26T15:09:46.903Z,88.99
2019-01-26T15:13:02.449Z,88.80
2019-01-26T15:16:17.972Z,89.07
2019-01-26T15:19:33.707Z,88.81
2019-01-26T15:22:49.223Z,88.82
2019-01-26T15:26:05.170Z,89.24
2019-01-26T15:29:22.097Z,89.51
2019-01-26T15:32:37.359Z,90.04
2019-01-26T15:35:52.559Z,90.75
2019-01-26T15:39:07.880Z,91.03
2019-01-26T15:42:23.773Z,91.37
2019-01-26T15:45:41.607Z,91.50
2019-01-26T15:48:57.076Z,91.42
2019-01-26T15:52:12.244Z,91.32
2019-01-26T15:55:27.075Z,90.96
2019-01-26T15:58:43.095Z,91.08
2019-01-26T16:01:58.201Z,91.17
2019-01-26T16:05:13.807Z,91.13
2019-01-26T16:08:29.076Z,91.23
2019-01-26T16:11:44.448Z,91.22
2019-01-26T16:14:59.630Z,91.03
2019-01-26T16:18:15.811Z,90.95
2019-01-26T16:21:30.985Z,90.75
2019-01-26T16:24:46.946Z,90.61
2019-01-26T16:28:02.340Z,90.71
2019-01-26T16:31:17.608Z,90.37
2019-01-26T16:34:32.746Z,90.21
2019-01-26T16:37:48.021Z,90.07
2019-01-26T16:41:03.403Z,90.09
2019-01-26T16:47:48.766Z,90.71
2019-01-26T16:51:04.097Z,90.49
2019-01-26T16:54:19.757Z,90.42
2019-01-26T16:57:35.406Z,90.38
2019-01-26T17:00:52.903Z,90.67
2019-01-26T17:04:08.166Z,90.62
2019-01-26T17:07:23.609Z,90.43
2019-01-26T17:10:38.767Z,90.57
2019-01-26T17:13:53.912Z,90.53
2019-01-26T17:17:08.984Z,90.47
2019-01-26T17:20:24.551Z,90.79
2019-01-26T17:23:41.225Z,90.59
2019-01-26T17:26:56.875Z,90.71
2019-01-26T17:30:16.036Z,90.50
2019-01-26T17:33:31.168Z,90.65
2019-01-26T17:36:46.512Z,90.71
2019-01-26T17:40:01.971Z,90.36
2019-01-26T17:43:17.324Z,90.18
2019-01-26T17:46:33.197Z,90.07
2019-01-26T17:49:48.538Z,89.99
2019-01-26T17:53:05.725Z,89.69
2019-01-26T17:56:21.158Z,89.54
2019-01-26T17:59:36.650Z,89.42
2019-01-26T18:02:51.901Z,89.45
2019-01-26T18:06:07.339Z,89.33
2019-01-26T18:09:22.412Z,89.16
2019-01-26T18:12:37.887Z,89.34
2019-01-26T18:15:53.006Z,89.56
2019-01-26T18:19:08.663Z,89.08
2019-01-26T18:22:23.912Z,88.65
2019-01-26T18:25:39.986Z,88.23
2019-01-26T18:28:55.435Z,88.18
2019-01-26T18:32:11.367Z,87.76
2019-01-26T18:35:27.360Z,87.89
2019-01-26T18:38:42.628Z,87.76
2019-01-26T18:41:57.947Z,87.94
2019-01-26T18:45:13.889Z,88.00
2019-01-26T18:48:29.287Z,88.18
2019-01-26T18:51:44.752Z,88.68
2019-01-26T18:55:00.415Z,88.48
2019-01-26T18:58:15.983Z,87.86
2019-01-26T19:01:31.532Z,88.05
2019-01-26T19:04:51.165Z,87.93
2019-01-26T19:08:08.646Z,88.04
2019-01-26T19:11:24.134Z,87.81
2019-01-26T19:14:39.592Z,87.70
2019-01-26T19:17:55.069Z,87.56
2019-01-26T19:21:10.703Z,88.19
2019-01-26T19:24:25.959Z,88.64
2019-01-26T19:27:41.285Z,88.49
2019-01-26T19:30:56.562Z,88.55
2019-01-26T19:34:11.820Z,88.53
2019-01-26T19:37:27.163Z,88.55
2019-01-26T19:40:42.321Z,88.26
2019-01-26T19:43:57.668Z,87.71
2019-01-26T19:47:13.222Z,87.66
2019-01-26T19:50:28.683Z,88.24
2019-01-26T19:53:44.340Z,88.30
2019-01-26T19:56:59.592Z,88.50
2019-01-26T20:00:14.865Z,88.60
2019-01-26T20:03:30.318Z,88.40
2019-01-26T20:06:45.763Z,87.87
2019-01-26T20:10:01.499Z,87.54
2019-01-26T20:13:16.765Z,87.66
2019-01-26T20:16:36.377Z,87.55
2019-01-26T20:19:49.681Z,87.70
2019-01-26T20:23:04.939Z,87.88
2019-01-26T20:26:20.430Z,87.53
2019-01-26T20:29:35.945Z,87.76
2019-01-26T20:32:51.647Z,87.88
2019-01-26T20:36:07.104Z,87.43
2019-01-26T20:39:22.509Z,87.48
2019-01-26T20:42:37.902Z,87.72
2019-01-26T20:45:53.387Z,87.57
2019-01-26T20:49:08.710Z,87.73
2019-01-26T20:52:24.266Z,87.83
2019-01-26T20:55:39.630Z,87.70
2019-01-26T20:58:54.978Z,87.41
2019-01-26T21:02:09.900Z,87.38
2019-01-26T21:05:25.069Z,86.72
2019-01-26T21:08:40.591Z,87.08
2019-01-26T21:11:56.096Z,87.89
2019-01-26T21:15:11.736Z,88.14
2019-01-26T21:18:26.998Z,87.97
2019-01-26T21:21:42.732Z,88.37
2019-01-26T21:24:59.800Z,88.39
2019-01-26T21:28:14.971Z,88.49
2019-01-26T21:31:30.355Z,88.27
2019-01-26T21:34:45.777Z,88.14
2019-01-26T21:38:01.229Z,88.29
2019-01-26T21:41:16.424Z,88.39
2019-01-26T21:44:31.975Z,88.40
2019-01-26T21:47:47.467Z,88.36
2019-01-26T21:51:03.090Z,88.42
2019-01-26T21:54:18.306Z,88.22
2019-01-26T21:57:33.695Z,88.09
2019-01-26T22:00:49.026Z,87.75
2019-01-26T22:04:05.100Z,87.82
2019-01-26T22:07:21.522Z,87.50
2019-01-26T22:10:37.156Z,88.14
2019-01-26T22:13:52.606Z,88.45
2019-01-26T22:17:07.800Z,88.69
2019-01-26T22:20:23.515Z,89.14
2019-01-26T22:23:40.300Z,88.89
2019-01-26T22:26:55.860Z,88.62
2019-01-26T22:30:14.727Z,88.27
2019-01-26T22:33:30.046Z,88.14
2019-01-26T22:36:45.704Z,88.25
2019-01-26T22:40:01.164Z,87.78
2019-01-26T22:43:16.723Z,87.83
2019-01-26T22:46:31.859Z,87.49
2019-01-26T22:49:47.136Z,86.96
2019-01-26T22:53:02.902Z,86.74
2019-01-26T22:56:18.445Z,86.94
2019-01-26T22:59:33.890Z,87.14
2019-01-26T23:06:31.909Z,87.27
2019-01-26T23:10:02.672Z,87.12
2019-01-26T23:13:24.778Z,87.10
2019-01-26T23:17:23.039Z,87.15
2019-01-26T23:21:03.535Z,87.12
2019-01-26T23:24:52.864Z,87.08
2019-01-26T23:28:14.764Z,86.90
2019-01-26T23:31:30.126Z,87.11
2019-01-26T23:34:45.615Z,87.19
2019-01-26T23:38:01.041Z,86.91
2019-01-26T23:41:16.758Z,86.96
2019-01-26T23:44:32.416Z,87.17
2019-01-26T23:47:47.564Z,87.12
2019-01-26T23:51:02.538Z,87.19
2019-01-26T23:54:17.912Z,87.14
2019-01-26T23:57:33.162Z,87.04
